createdAt,value
2018-10-05T00:00:40.099Z,99256.96
2018-10-05T00:03:09.484Z,99246.45
2018-10-05T00:05:38.789Z,99248.82
2018-10-05T00:08:08.190Z,99246.75
2018-10-05T00:10:37.592Z,99243.86
2018-10-05T00:13:07.234Z,99241.31
2018-10-05T00:15:36.607Z,99238.02
2018-10-05T00:18:06.041Z,99240.64
2018-10-05T00:20:35.473Z,99236.41
2018-10-05T00:23:04.806Z,99237.98
2018-10-05T00:25:34.207Z,99235.47
2018-10-05T00:28:03.867Z,99231.39
2018-10-05T00:30:33.216Z,99235.20
2018-10-05T00:33:02.822Z,99225.53
2018-10-05T00:35:32.224Z,99219.05
2018-10-05T00:38:01.681Z,99218.63
2018-10-05T00:40:30.923Z,99220.84
2018-10-05T00:43:00.328Z,99219.39
2018-10-05T00:45:29.732Z,99218.40
2018-10-05T00:47:59.028Z,99219.63
2018-10-05T00:50:28.327Z,99210.63
2018-10-05T00:52:57.788Z,99212.42
2018-10-05T00:55:27.234Z,99213.45
2018-10-05T00:57:56.738Z,99213.02
2018-10-05T01:00:26.144Z,99221.13
2018-10-05T01:02:55.503Z,99217.97
2018-10-05T01:05:24.944Z,99214.76
2018-10-05T01:07:54.447Z,99217.02
2018-10-05T01:10:23.637Z,99207.66
2018-10-05T01:12:53.150Z,99205.49
2018-10-05T01:15:22.556Z,99196.31
2018-10-05T01:17:51.956Z,99191.90
2018-10-05T01:20:21.457Z,99198.58
2018-10-05T01:22:50.961Z,99197.69
2018-10-05T01:25:20.255Z,99188.97
2018-10-05T01:27:49.560Z,99186.45
2018-10-05T01:30:18.963Z,99180.47
2018-10-05T01:32:48.364Z,99186.97
2018-10-05T01:35:17.765Z,99183.51
2018-10-05T01:37:47.222Z,99167.23
2018-10-05T01:40:16.570Z,99174.97
2018-10-05T01:42:45.776Z,99177.53
2018-10-05T01:45:15.169Z,99167.33
2018-10-05T01:47:44.579Z,99165.73
2018-10-05T01:50:13.869Z,99163.65
2018-10-05T01:52:43.171Z,99163.23
2018-10-05T01:55:12.570Z,99166.98
2018-10-05T01:57:42.074Z,99160.04
2018-10-05T02:00:11.579Z,99158.82
2018-10-05T02:02:41.337Z,99155.75
2018-10-05T02:05:10.945Z,99150.80
2018-10-05T02:07:40.399Z,99153.42
2018-10-05T02:10:09.818Z,99151.66
2018-10-05T02:12:39.202Z,99153.22
2018-10-05T02:15:08.605Z,99150.32
2018-10-05T02:17:38.006Z,99151.59
2018-10-05T02:20:07.305Z,99144.98
2018-10-05T02:22:36.810Z,99149.20
2018-10-05T02:25:06.103Z,99146.92
2018-10-05T02:27:36.126Z,99138.58
2018-10-05T02:30:05.527Z,99139.28
2018-10-05T02:32:34.930Z,99130.59
2018-10-05T02:35:04.698Z,99124.17
2018-10-05T02:37:34.042Z,99120.81
2018-10-05T02:40:03.287Z,99123.93
2018-10-05T02:42:32.641Z,99121.59
2018-10-05T02:45:01.938Z,99119.98
2018-10-05T02:47:31.236Z,99125.78
2018-10-05T02:50:00.641Z,99125.11
2018-10-05T02:52:30.144Z,99124.48
2018-10-05T02:54:59.549Z,99120.48
2018-10-05T02:57:28.845Z,99121.33
2018-10-05T02:59:58.238Z,99122.98
2018-10-05T03:02:31.791Z,99122.78
2018-10-05T03:05:01.152Z,99122.98
2018-10-05T03:07:31.242Z,99122.34
2018-10-05T03:10:01.911Z,99113.14
2018-10-05T03:12:31.398Z,99117.31
2018-10-05T03:15:00.801Z,99118.22
2018-10-05T03:17:30.201Z,99123.66
2018-10-05T03:19:59.599Z,99126.27
2018-10-05T03:22:28.799Z,99124.48
2018-10-05T03:24:58.040Z,99121.12
2018-10-05T03:27:27.400Z,99118.22
2018-10-05T03:29:56.802Z,99121.31
2018-10-05T03:32:26.102Z,99118.50
2018-10-05T03:34:55.503Z,99121.05
2018-10-05T03:37:25.419Z,99113.19
2018-10-05T03:39:55.535Z,99115.19
2018-10-05T03:42:24.936Z,99107.84
2018-10-05T03:44:54.239Z,99098.16
2018-10-05T03:47:23.740Z,99097.30
2018-10-05T03:49:53.144Z,99087.84
2018-10-05T03:52:22.543Z,99090.19
2018-10-05T03:54:51.844Z,99088.80
2018-10-05T03:57:21.028Z,99088.61
2018-10-05T03:59:50.444Z,99091.42
2018-10-05T04:02:19.844Z,99086.87
2018-10-05T04:04:49.245Z,99093.30
2018-10-05T04:07:18.547Z,99083.19
2018-10-05T04:09:47.950Z,99091.53
2018-10-05T04:12:17.348Z,99090.66
2018-10-05T04:14:46.652Z,99093.27
2018-10-05T04:17:16.049Z,99082.44
2018-10-05T04:19:45.530Z,99085.89
2018-10-05T04:22:19.154Z,99083.33
2018-10-05T04:24:48.556Z,99086.50
2018-10-05T04:27:18.032Z,99087.13
2018-10-05T04:29:47.462Z,99092.36
2018-10-05T04:32:16.779Z,99093.09
2018-10-05T04:34:46.374Z,99095.73
2018-10-05T04:37:16.078Z,99090.92
2018-10-05T04:39:45.404Z,99089.73
2018-10-05T04:42:14.777Z,99092.72
2018-10-05T04:44:43.990Z,99093.27
2018-10-05T04:47:13.786Z,99091.12
2018-10-05T04:49:43.202Z,99094.51
2018-10-05T04:52:12.496Z,99089.75
2018-10-05T04:54:41.774Z,99085.39
2018-10-05T04:57:11.191Z,99089.39
2018-10-05T04:59:40.494Z,99081.63
2018-10-05T05:02:09.889Z,99078.53
2018-10-05T05:04:39.394Z,99068.81
2018-10-05T05:07:09.001Z,99071.35
2018-10-05T05:09:38.402Z,99067.07
2018-10-05T05:12:07.866Z,99066.44
2018-10-05T05:14:37.417Z,99099.78
2018-10-05T05:17:06.927Z,99074.30
2018-10-05T05:19:36.376Z,99070.05
2018-10-05T05:22:05.869Z,99068.66
2018-10-05T05:24:35.326Z,99072.22
2018-10-05T05:27:04.831Z,99071.35
2018-10-05T05:29:34.232Z,99070.84
2018-10-05T05:32:03.736Z,99070.98
2018-10-05T05:34:33.070Z,99068.14
2018-10-05T05:37:02.437Z,99078.77
2018-10-05T05:39:31.838Z,99077.73
2018-10-05T05:42:01.168Z,99075.66
2018-10-05T05:44:30.440Z,99081.58
2018-10-05T05:46:59.877Z,99076.50
2018-10-05T05:49:29.137Z,99084.07
2018-10-05T05:51:58.549Z,99086.53
2018-10-05T05:54:27.959Z,99088.88
2018-10-05T05:56:57.136Z,99095.58
2018-10-05T05:59:26.641Z,99088.16
2018-10-05T06:01:56.117Z,99095.46
2018-10-05T06:04:25.548Z,99088.77
2018-10-05T06:06:54.951Z,99089.47
2018-10-05T06:09:24.351Z,99085.83
2018-10-05T06:11:53.649Z,99088.16
2018-10-05T06:14:22.952Z,99090.10
2018-10-05T06:16:52.353Z,99090.58
2018-10-05T06:19:21.757Z,99084.23
2018-10-05T06:21:51.302Z,99078.16
2018-10-05T06:24:20.557Z,99087.00
2018-10-05T06:26:49.961Z,99083.83
2018-10-05T06:29:19.363Z,99090.17
2018-10-05T06:31:48.865Z,99087.97
2018-10-05T06:34:18.473Z,99090.58
2018-10-05T06:36:47.782Z,99085.97
2018-10-05T06:39:17.174Z,99084.30
2018-10-05T06:41:46.788Z,99085.07
2018-10-05T06:44:16.074Z,99086.13
2018-10-05T06:46:45.583Z,99079.28
2018-10-05T06:49:14.985Z,99076.23
2018-10-05T06:51:44.386Z,99079.52
2018-10-05T06:54:13.686Z,99086.38
2018-10-05T06:56:42.990Z,99086.85
2018-10-05T06:59:12.494Z,99086.90
2018-10-05T07:01:42.025Z,99082.91
2018-10-05T07:04:11.396Z,99084.63
2018-10-05T07:06:40.797Z,99084.95
2018-10-05T07:09:10.097Z,99085.59
2018-10-05T07:11:39.349Z,99081.48
2018-10-05T07:14:08.798Z,99084.42
2018-10-05T07:16:38.180Z,99080.09
2018-10-05T07:19:07.703Z,99074.95
2018-10-05T07:21:37.106Z,99072.84
2018-10-05T07:24:06.507Z,99071.09
2018-10-05T07:26:35.842Z,99070.05
2018-10-05T07:29:05.209Z,99066.42
2018-10-05T07:31:34.448Z,99072.50
2018-10-05T07:34:03.967Z,99078.11
2018-10-05T07:36:33.416Z,99077.97
2018-10-05T07:39:02.815Z,99075.33
2018-10-05T07:41:32.217Z,99086.47
2018-10-05T07:44:01.704Z,99086.56
2018-10-05T07:46:31.328Z,99087.60
2018-10-05T07:49:00.730Z,99085.08
2018-10-05T07:51:30.951Z,99086.18
2018-10-05T07:54:00.176Z,99094.69
2018-10-05T07:56:29.651Z,99098.62
2018-10-05T07:58:58.955Z,99096.34
2018-10-05T08:01:28.361Z,99097.75
2018-10-05T08:03:57.754Z,99099.28
2018-10-05T08:06:26.935Z,99098.95
2018-10-05T08:08:56.354Z,99093.48
2018-10-05T08:11:25.756Z,99090.70
2018-10-05T08:13:55.156Z,99086.94
2018-10-05T08:16:24.451Z,99095.31
2018-10-05T08:18:53.858Z,99085.73
2018-10-05T08:21:23.166Z,99083.64
2018-10-05T08:23:52.629Z,99076.89
2018-10-05T08:26:21.860Z,99078.44
2018-10-05T08:28:51.157Z,99072.11
2018-10-05T08:31:20.560Z,99064.38
2018-10-05T08:33:50.002Z,99063.13
2018-10-05T08:36:19.361Z,99062.62
2018-10-05T08:38:48.699Z,99051.30
2018-10-05T08:41:18.065Z,99047.64
2018-10-05T08:43:47.368Z,99041.47
2018-10-05T08:46:16.766Z,99031.77
2018-10-05T08:48:46.169Z,99026.48
2018-10-05T08:51:15.569Z,99031.94
2018-10-05T08:53:44.971Z,99030.59
2018-10-05T08:56:14.165Z,99026.59
2018-10-05T08:58:43.406Z,99024.26
2018-10-05T09:01:12.768Z,99016.89
2018-10-05T09:03:42.167Z,99008.81
2018-10-05T09:06:11.570Z,99014.23
2018-10-05T09:08:40.867Z,99015.34
2018-10-05T09:11:10.386Z,99003.89
2018-10-05T09:13:39.879Z,99007.09
2018-10-05T09:16:09.233Z,99008.19
2018-10-05T09:18:38.886Z,98993.11
2018-10-05T09:21:08.399Z,98987.06
2018-10-05T09:23:37.793Z,98978.41
2018-10-05T09:26:07.092Z,98972.66
2018-10-05T09:28:36.780Z,98968.85
2018-10-05T09:31:06.207Z,98970.65
2018-10-05T09:33:35.520Z,98970.30
2018-10-05T09:36:05.011Z,98967.23
2018-10-05T09:38:34.460Z,98957.30
2018-10-05T09:41:03.712Z,98947.98
2018-10-05T09:43:33.114Z,98942.87
2018-10-05T09:46:02.618Z,98939.33
2018-10-05T09:48:32.126Z,98932.15
2018-10-05T09:51:01.628Z,98937.67
2018-10-05T09:53:31.028Z,98932.23
2018-10-05T09:56:00.430Z,98932.07
2018-10-05T09:58:29.833Z,98919.16
2018-10-05T10:02:08.253Z,98914.73
2018-10-05T10:04:37.733Z,98904.33
2018-10-05T10:07:07.151Z,98906.23
2018-10-05T10:09:36.661Z,98901.22
2018-10-05T10:12:06.171Z,98903.92
2018-10-05T10:14:40.330Z,98898.31
2018-10-05T10:17:09.597Z,98895.27
2018-10-05T10:19:39.081Z,98887.35
2018-10-05T10:22:08.692Z,98883.41
2018-10-05T10:24:38.194Z,98881.65
2018-10-05T10:27:07.593Z,98876.45
2018-10-05T10:29:37.098Z,98871.09
2018-10-05T10:32:06.705Z,98867.66
2018-10-05T10:34:36.159Z,98860.41
2018-10-05T10:37:05.597Z,98862.97
2018-10-05T10:39:34.857Z,98857.53
2018-10-05T10:42:04.224Z,98852.71
2018-10-05T10:44:33.716Z,98854.92
2018-10-05T10:47:03.091Z,98849.19
2018-10-05T10:49:32.518Z,98845.10
2018-10-05T10:52:02.023Z,98839.16
2018-10-05T10:54:31.527Z,98839.62
2018-10-05T10:57:01.032Z,98837.19
2018-10-05T10:59:30.432Z,98836.09
2018-10-05T11:02:00.043Z,98831.84
2018-10-05T11:04:29.491Z,98825.80
2018-10-05T11:06:58.843Z,98819.67
2018-10-05T11:09:28.143Z,98821.22
2018-10-05T11:11:57.544Z,98816.64
2018-10-05T11:14:26.850Z,98818.22
2018-10-05T11:16:56.320Z,98814.11
2018-10-05T11:19:25.669Z,98806.69
2018-10-05T11:21:55.049Z,98799.64
2018-10-05T11:24:24.277Z,98800.82
2018-10-05T11:26:53.752Z,98796.51
2018-10-05T11:29:23.151Z,98785.70
2018-10-05T11:31:52.452Z,98778.50
2018-10-05T11:34:21.930Z,98776.30
2018-10-05T11:36:51.356Z,98774.37
2018-10-05T11:39:20.760Z,98764.48
2018-10-05T11:41:49.988Z,98765.09
2018-10-05T11:44:19.467Z,98755.88
2018-10-05T11:46:48.862Z,98753.78
2018-10-05T11:49:18.265Z,98755.94
2018-10-05T11:51:48.075Z,98755.77
2018-10-05T11:54:17.579Z,98751.11
2018-10-05T11:56:47.156Z,98753.89
2018-10-05T11:59:16.587Z,98752.38
2018-10-05T12:01:46.121Z,98740.98
2018-10-05T12:04:15.495Z,98741.92
2018-10-05T12:06:45.073Z,98729.84
2018-10-05T12:09:14.306Z,98725.06
2018-10-05T12:11:43.644Z,98720.47
2018-10-05T12:14:13.103Z,98720.31
2018-10-05T12:16:42.504Z,98717.50
2018-10-05T12:19:11.714Z,98713.21
2018-10-05T12:21:41.220Z,98713.73
2018-10-05T12:24:10.711Z,98712.94
2018-10-05T12:26:40.254Z,98703.52
2018-10-05T12:29:09.719Z,98705.20
2018-10-05T12:31:39.121Z,98697.35
2018-10-05T12:34:08.625Z,98697.37
2018-10-05T12:36:38.077Z,98684.67
2018-10-05T12:39:08.519Z,98685.31
2018-10-05T12:41:38.636Z,98691.70
2018-10-05T12:44:08.497Z,98683.95
2018-10-05T12:46:38.217Z,98680.92
2018-10-05T12:49:07.601Z,98678.17
2018-10-05T12:51:36.996Z,98681.85
2018-10-05T12:54:06.503Z,98674.18
2018-10-05T12:56:35.905Z,98672.12
2018-10-05T12:59:05.409Z,98674.81
2018-10-05T13:01:34.913Z,98671.30
2018-10-05T13:04:04.418Z,98670.00
2018-10-05T13:06:33.845Z,98663.02
2018-10-05T13:09:03.528Z,98666.81
2018-10-05T13:11:33.133Z,98665.15
2018-10-05T13:14:02.844Z,98652.25
2018-10-05T13:16:32.245Z,98648.72
2018-10-05T13:21:29.901Z,98638.06
2018-10-05T13:23:59.236Z,98634.41
2018-10-05T13:26:28.532Z,98635.51
2018-10-05T13:28:57.922Z,98628.51
2018-10-05T13:31:27.236Z,98629.07
2018-10-05T13:33:56.656Z,98631.48
2018-10-05T13:36:26.031Z,98628.51
2018-10-05T13:38:55.525Z,98630.92
2018-10-05T13:41:24.928Z,98628.11
2018-10-05T13:43:54.636Z,98623.84
2018-10-05T13:46:24.111Z,98621.59
2018-10-05T13:48:53.646Z,98617.02
2018-10-05T13:51:23.147Z,98607.98
2018-10-05T13:53:52.552Z,98611.94
2018-10-05T13:56:21.949Z,98610.88
2018-10-05T13:58:51.583Z,98608.94
2018-10-05T14:01:21.167Z,98605.23
2018-10-05T14:03:50.523Z,98605.84
2018-10-05T14:06:19.975Z,98591.56
2018-10-05T14:08:49.370Z,98589.97
2018-10-05T14:11:18.582Z,98581.61
2018-10-05T14:13:47.971Z,98585.34
2018-10-05T14:16:17.380Z,98587.86
2018-10-05T14:18:46.776Z,98583.66
2018-10-05T14:21:16.280Z,98581.05
2018-10-05T14:23:45.639Z,98572.66
2018-10-05T14:26:15.196Z,98564.62
2018-10-05T14:28:44.691Z,98560.03
2018-10-05T14:33:42.268Z,98560.72
2018-10-05T14:36:11.770Z,98555.61
2018-10-05T14:38:40.976Z,98550.80
2018-10-05T14:41:10.472Z,98544.88
2018-10-05T14:43:39.873Z,98543.72
2018-10-05T14:46:09.380Z,98532.41
2018-10-05T14:48:38.779Z,98538.64
2018-10-05T14:51:08.385Z,98541.08
2018-10-05T14:53:37.687Z,98535.73
2018-10-05T14:56:06.923Z,98538.45
2018-10-05T14:58:36.389Z,98527.95
2018-10-05T15:01:05.789Z,98525.77
2018-10-05T15:03:35.089Z,98518.20
2018-10-05T15:06:04.434Z,98528.03
2018-10-05T15:08:33.789Z,98518.58
2018-10-05T15:11:03.186Z,98519.71
2018-10-05T15:13:32.608Z,98514.80
2018-10-05T15:16:01.915Z,98514.02
2018-10-05T15:18:31.191Z,98506.22
2018-10-05T15:21:00.699Z,98504.77
2018-10-05T15:23:30.099Z,98504.48
2018-10-05T15:25:59.398Z,98495.64
2018-10-05T15:28:28.603Z,98493.97
2018-10-05T15:30:57.998Z,98497.91
2018-10-05T15:33:27.403Z,98494.48
2018-10-05T15:35:56.700Z,98493.09
2018-10-05T15:38:26.205Z,98486.16
2018-10-05T15:40:55.708Z,98486.97
2018-10-05T15:43:25.350Z,98483.72
2018-10-05T15:46:00.151Z,98489.44
2018-10-05T15:48:29.531Z,98481.45
2018-10-05T15:50:58.948Z,98481.78
2018-10-05T15:53:28.352Z,98476.98
2018-10-05T15:55:57.707Z,98482.23
2018-10-05T15:58:27.901Z,98478.79
2018-10-05T16:00:57.480Z,98479.03
2018-10-05T16:03:27.017Z,98474.75
2018-10-05T16:05:56.616Z,98473.09
2018-10-05T16:08:25.915Z,98470.00
2018-10-05T16:11:01.847Z,98467.41
2018-10-05T16:13:31.248Z,98472.80
2018-10-05T16:16:00.652Z,98469.84
2018-10-05T16:18:29.855Z,98471.22
2018-10-05T16:20:59.248Z,98470.02
2018-10-05T16:23:28.424Z,98467.76
2018-10-05T16:25:57.883Z,98463.96
2018-10-05T16:28:27.250Z,98466.10
2018-10-05T16:31:00.836Z,98465.75
2018-10-05T16:33:30.253Z,98466.98
2018-10-05T16:35:59.757Z,98468.97
2018-10-05T16:38:29.237Z,98465.45
2018-10-05T16:40:58.666Z,98459.53
2018-10-05T16:43:28.065Z,98459.66
2018-10-05T16:45:57.467Z,98453.22
2018-10-05T16:48:26.802Z,98446.22
2018-10-05T16:50:56.270Z,98454.42
2018-10-05T16:53:25.775Z,98451.11
2018-10-05T16:55:56.611Z,98454.60
2018-10-05T16:58:25.807Z,98449.58
2018-10-05T17:00:55.135Z,98455.21
2018-10-05T17:03:24.410Z,98466.73
2018-10-05T17:05:54.833Z,98464.67
2018-10-05T17:08:24.131Z,98464.58
2018-10-05T17:10:53.542Z,98462.36
2018-10-05T17:13:22.754Z,98459.12
2018-10-05T17:15:52.133Z,98454.13
2018-10-05T17:18:21.350Z,98457.47
2018-10-05T17:20:50.703Z,98455.23
2018-10-05T17:23:20.027Z,98453.99
2018-10-05T17:25:49.434Z,98460.89
2018-10-05T17:28:18.750Z,98451.02
2018-10-05T17:30:48.237Z,98454.05
2018-10-05T17:33:17.641Z,98455.48
2018-10-05T17:35:47.053Z,98448.22
2018-10-05T17:38:16.444Z,98444.16
2018-10-05T17:40:45.845Z,98450.62
2018-10-05T17:43:15.285Z,98445.02
2018-10-05T17:45:44.961Z,98446.28
2018-10-05T17:48:16.406Z,98448.06
2018-10-05T17:50:45.911Z,98455.25
2018-10-05T17:53:16.202Z,98457.95
2018-10-05T17:55:46.119Z,98471.74
2018-10-05T17:58:15.608Z,98456.57
2018-10-05T18:00:47.103Z,98458.72
2018-10-05T18:03:16.506Z,98455.53
2018-10-05T18:05:46.208Z,98450.50
2018-10-05T18:08:15.732Z,98404.95
2018-10-05T18:10:45.429Z,98453.33
2018-10-05T18:13:14.730Z,98446.26
2018-10-05T18:15:44.231Z,98442.47
2018-10-05T18:18:13.840Z,98437.67
2018-10-05T18:20:43.235Z,98430.55
2018-10-05T18:23:13.154Z,98428.16
2018-10-05T18:25:43.683Z,98435.56
2018-10-05T18:28:13.021Z,98431.93
2018-10-05T18:30:42.395Z,98428.05
2018-10-05T18:33:13.013Z,98425.56
2018-10-05T18:35:42.928Z,98425.53
2018-10-05T18:38:13.096Z,98423.25
2018-10-05T18:40:42.961Z,98429.47
2018-10-05T18:43:13.425Z,98427.33
2018-10-05T18:45:42.687Z,98421.94
2018-10-05T18:48:11.981Z,98420.80
2018-10-05T18:50:41.492Z,98419.25
2018-10-05T18:53:11.202Z,98411.72
2018-10-05T18:55:40.601Z,98417.02
2018-10-05T18:58:10.070Z,98406.09
2018-10-05T19:00:39.559Z,98403.16
2018-10-05T19:03:09.012Z,98404.76
2018-10-05T19:05:38.517Z,98400.69
2018-10-05T19:08:08.020Z,98395.48
2018-10-05T19:10:38.461Z,98393.09
2018-10-05T19:13:09.078Z,98390.23
2018-10-05T19:15:38.786Z,98394.41
2018-10-05T19:18:10.655Z,98393.86
2018-10-05T19:20:40.253Z,98396.27
2018-10-05T19:23:09.757Z,98390.66
2018-10-05T19:25:39.224Z,98387.91
2018-10-05T19:28:08.560Z,98386.45
2018-10-05T19:30:38.027Z,98382.61
2018-10-05T19:33:07.468Z,98372.61
2018-10-05T19:35:36.755Z,98374.81
2018-10-05T19:38:06.374Z,98377.05
2018-10-05T19:40:35.987Z,98376.34
2018-10-05T19:43:05.483Z,98367.36
2018-10-05T19:45:34.988Z,98373.81
2018-10-05T19:48:04.441Z,98363.75
2018-10-05T19:50:33.793Z,98367.30
2018-10-05T19:53:03.238Z,98370.80
2018-10-05T19:55:33.825Z,98373.12
2018-10-05T19:58:03.331Z,98363.09
2018-10-05T20:00:32.731Z,98372.52
2018-10-05T20:03:02.236Z,98369.87
2018-10-05T20:05:31.547Z,98365.27
2018-10-05T20:08:00.863Z,98360.58
2018-10-05T20:10:30.307Z,98359.01
2018-10-05T20:12:59.899Z,98358.26
2018-10-05T20:15:29.348Z,98354.68
2018-10-05T20:17:58.978Z,98351.27
2018-10-05T20:20:28.254Z,98345.73
2018-10-05T20:22:57.948Z,98347.16
2018-10-05T20:25:27.181Z,98346.64
2018-10-05T20:27:56.552Z,98340.43
2018-10-05T20:30:25.771Z,98334.77
2018-10-05T20:32:55.367Z,98339.94
2018-10-05T20:35:24.974Z,98325.41
2018-10-05T20:37:54.495Z,98335.05
2018-10-05T20:40:23.884Z,98334.34
2018-10-05T20:42:53.196Z,98340.25
2018-10-05T20:45:22.786Z,98338.57
2018-10-05T20:47:52.271Z,98338.13
2018-10-05T20:50:21.556Z,98340.42
2018-10-05T20:52:50.935Z,98335.91
2018-10-05T20:55:20.293Z,98330.97
2018-10-05T20:57:49.972Z,98341.63
2018-10-05T21:00:19.404Z,98332.32
2018-10-05T21:02:48.909Z,98332.83
2018-10-05T21:05:18.208Z,98335.14
2018-10-05T21:07:47.609Z,98338.96
2018-10-05T21:10:17.591Z,98326.89
2018-10-05T21:12:47.131Z,98333.12
2018-10-05T21:15:16.462Z,98319.61
2018-10-05T21:17:45.831Z,98322.45
2018-10-05T21:20:16.631Z,98320.12
2018-10-05T21:22:46.170Z,98321.42
2018-10-05T21:25:15.859Z,98324.06
2018-10-05T21:27:45.290Z,98322.91
2018-10-05T21:30:14.889Z,98317.60
2018-10-05T21:32:44.572Z,98322.63
2018-10-05T21:35:14.205Z,98317.19
2018-10-05T21:37:43.639Z,98317.11
2018-10-05T21:40:13.218Z,98324.72
2018-10-05T21:42:42.820Z,98321.48
2018-10-05T21:45:13.453Z,98319.95
2018-10-05T21:47:45.018Z,98322.05
2018-10-05T21:50:14.521Z,98319.05
2018-10-05T21:52:44.012Z,98316.86
2018-10-05T21:55:13.518Z,98318.72
2018-10-05T21:57:43.097Z,98314.02
2018-10-05T22:00:12.730Z,98302.61
2018-10-05T22:02:42.229Z,98307.92
2018-10-05T22:05:11.496Z,98324.10
2018-10-05T22:07:41.138Z,98322.88
2018-10-05T22:10:11.462Z,98307.44
2018-10-05T22:12:40.933Z,98312.75
2018-10-05T22:15:10.249Z,98310.48
2018-10-05T22:17:39.771Z,98311.05
2018-10-05T22:20:10.256Z,98313.00
2018-10-05T22:22:39.746Z,98314.06
2018-10-05T22:25:09.066Z,98314.06
2018-10-05T22:27:38.708Z,98304.56
2018-10-05T22:30:08.570Z,98309.89
2018-10-05T22:32:38.025Z,98309.47
2018-10-05T22:35:07.479Z,98305.89
2018-10-05T22:37:36.890Z,98304.83
2018-10-05T22:40:06.434Z,98309.97
2018-10-05T22:42:36.143Z,98300.58
2018-10-05T22:45:05.548Z,98299.11
2018-10-05T22:47:34.945Z,98295.30
2018-10-05T22:50:04.450Z,98299.81
2018-10-05T22:52:33.861Z,98297.30
2018-10-05T22:55:03.358Z,98292.41
2018-10-05T22:57:32.863Z,98289.31
2018-10-05T23:00:02.469Z,98293.14
2018-10-05T23:02:32.048Z,98297.62
2018-10-05T23:05:01.390Z,98288.66
2018-10-05T23:07:31.083Z,98296.74
2018-10-05T23:10:00.391Z,98299.81
2018-10-05T23:12:29.960Z,98292.48
2018-10-05T23:14:59.503Z,98293.17
2018-10-05T23:17:28.815Z,98291.82
2018-10-05T23:19:58.298Z,98296.30
2018-10-05T23:22:28.928Z,98288.49
2018-10-05T23:24:58.415Z,98283.02
2018-10-05T23:27:28.244Z,98280.76
2018-10-05T23:29:57.696Z,98282.08
2018-10-05T23:32:28.174Z,98283.03
2018-10-05T23:34:57.576Z,98287.20
2018-10-05T23:37:27.080Z,98282.50
2018-10-05T23:39:56.788Z,98275.56
2018-10-05T23:42:26.293Z,98278.41
2018-10-05T23:44:55.741Z,98275.49
2018-10-05T23:47:25.095Z,98272.28
2018-10-05T23:49:54.548Z,98275.35
2018-10-05T23:52:37.168Z,98275.86
2018-10-05T23:55:07.023Z,98281.27
2018-10-05T23:57:37.197Z,98284.98
